Time;durP1;ratioP1;P1;durP2;ratioP2;P2;SDS_P1;SDS_P2;PMS_P1;PMS_P2;Temp;Humidity;BMP_temperature;BMP_pressure;BME280_temperature;BME280_humidity;BME280_pressure;Samples;Min_cycle;Max_cycle;Signal;HPM_P1;HPM_P2
2023/08/14 00:00:19;;;;;;;;;;;;;;;24.12;39.04;99827.84;5072933;28;20389;-77
2023/08/14 00:02:44;;;;;;;;;;;;;;;24.07;38.97;99831.31;5077010;28;19913;-79
2023/08/14 00:05:10;;;;;;;;;;;;;;;24.03;39.85;99834.78;5084482;28;19921;-77
2023/08/14 00:07:35;;;;;;;;;;;;;;;23.95;40.34;99828.00;5056027;28;20453;-77
2023/08/14 00:10:00;;;;;;;;;;;;;;;23.96;39.35;99837.72;5073129;28;19912;-77
2023/08/14 00:12:25;;;;;;;;;;;;;;;23.93;39.94;99830.13;5072662;28;20010;-76
2023/08/14 00:14:51;;;;;;;;;;;;;;;23.91;40.34;99832.28;5054420;28;19912;-79
2023/08/14 00:17:16;;;;;;;;;;;;;;;23.83;40.66;99829.25;5071505;28;20275;-78
2023/08/14 00:19:41;;;;;;;;;;;;;;;23.76;40.62;99822.16;5054652;28;19916;-77
2023/08/14 00:22:07;;;;;;;;;;;;;;;23.71;41.58;99824.00;5054224;28;19913;-76
2023/08/14 00:24:32;;;;;;;;;;;;;;;23.65;40.36;99820.44;5072248;28;20004;-78
2023/08/14 00:26:57;;;;;;;;;;;;;;;23.58;41.63;99822.53;5072127;28;19916;-78
2023/08/14 00:29:22;;;;;;;;;;;;;;;23.53;41.91;99819.78;5054512;28;19912;-78
2023/08/14 00:31:48;;;;;;;;;;;;;;;23.46;42.02;99821.88;5072311;28;19913;-79
2023/08/14 00:34:13;;;;;;;;;;;;;;;23.41;40.73;99824.53;5072383;28;20011;-78
2023/08/14 00:36:38;;;;;;;;;;;;;;;23.34;41.75;99826.59;5072357;28;19912;-78
2023/08/14 00:39:04;;;;;;;;;;;;;;;23.30;41.92;99826.31;5054415;28;20010;-78
2023/08/14 00:41:30;;;;;;;;;;;;;;;23.25;42.51;99823.56;5054195;28;20313;-78
2023/08/14 00:43:56;;;;;;;;;;;;;;;23.18;41.24;99817.56;5054038;28;20352;-78
2023/08/14 00:46:21;;;;;;;;;;;;;;;23.14;41.72;99824.53;5071843;28;19977;-78
2023/08/14 00:48:46;;;;;;;;;;;;;;;23.11;41.82;99820.44;5071936;28;19946;-78
2023/08/14 00:51:12;;;;;;;;;;;;;;;23.09;42.26;99819.06;5071920;28;19919;-78
2023/08/14 00:53:37;;;;;;;;;;;;;;;23.06;42.48;99820.41;5071864;28;19962;-78
2023/08/14 00:56:02;;;;;;;;;;;;;;;23.01;42.50;99819.50;5071634;28;20392;-78
2023/08/14 00:58:29;;;;;;;;;;;;;;;23.05;42.24;99820.66;5071627;28;19999;-79
2023/08/14 01:00:54;;;;;;;;;;;;;;;23.08;41.00;99814.75;5071856;28;19921;-78
2023/08/14 01:03:20;;;;;;;;;;;;;;;23.05;43.13;99813.38;5071962;28;19919;-79
2023/08/14 01:05:45;;;;;;;;;;;;;;;23.06;41.20;99812.31;5072112;28;19917;-77
2023/08/14 01:08:10;;;;;;;;;;;;;;;23.02;42.78;99805.78;5053904;28;19948;-78
2023/08/14 01:10:54;;;;;;;;;;;;;;;23.02;42.61;99810.34;5053926;28;19935;-78
2023/08/14 01:13:22;;;;;;;;;;;;;;;22.92;43.16;99802.97;5053656;28;19916;-78
2023/08/14 01:15:50;;;;;;;;;;;;;;;22.91;43.31;99803.22;5071634;28;19913;-78
2023/08/14 01:18:17;;;;;;;;;;;;;;;22.88;42.48;99806.44;5071536;28;19920;-78
2023/08/14 01:20:46;;;;;;;;;;;;;;;22.82;42.82;99795.59;5071478;28;20005;-78
2023/08/14 01:23:11;;;;;;;;;;;;;;;22.78;44.04;99791.75;5053642;28;20017;-78
2023/08/14 01:25:37;;;;;;;;;;;;;;;22.82;43.79;99802.88;5053379;28;19916;-78
2023/08/14 01:28:03;;;;;;;;;;;;;;;22.78;45.21;99799.03;5071873;28;20400;-78
2023/08/14 01:30:28;;;;;;;;;;;;;;;22.70;43.80;99805.66;5075897;28;19909;-78
2023/08/14 01:32:54;;;;;;;;;;;;;;;22.67;44.84;99795.41;5075558;28;19912;-79
2023/08/14 01:35:23;;;;;;;;;;;;;;;22.61;44.67;99807.16;5075424;28;20290;-77
2023/08/14 01:37:54;;;;;;;;;;;;;;;22.58;45.42;99804.97;5075212;28;19915;-80
2023/08/14 01:40:22;;;;;;;;;;;;;;;22.59;45.96;99803.09;5075422;28;20385;-76
2023/08/14 01:42:51;;;;;;;;;;;;;;;22.53;44.69;99804.91;5057307;28;19913;-77
2023/08/14 01:45:18;;;;;;;;;;;;;;;22.55;45.63;99818.94;5075160;28;19924;-79
2023/08/14 01:47:45;;;;;;;;;;;;;;;22.51;46.03;99805.16;5057248;28;20003;-79
2023/08/14 01:50:12;;;;;;;;;;;;;;;22.49;46.31;99801.09;5075029;28;19912;-79
2023/08/14 01:52:37;;;;;;;;;;;;;;;22.47;44.33;99797.84;5057073;28;20347;-78
2023/08/14 01:55:03;;;;;;;;;;;;;;;22.44;43.85;99795.63;5074814;28;19995;-79
2023/08/14 01:57:29;;;;;;;;;;;;;;;22.38;46.20;99799.31;5074896;28;19999;-78
2023/08/14 01:59:55;;;;;;;;;;;;;;;22.31;45.74;99802.19;5074807;28;19921;-78
2023/08/14 02:02:20;;;;;;;;;;;;;;;22.23;45.93;99801.78;5074888;28;19981;-79
2023/08/14 02:04:45;;;;;;;;;;;;;;;22.25;45.09;99800.47;5074888;28;19913;-79
2023/08/14 02:07:10;;;;;;;;;;;;;;;22.26;46.91;99801.28;5056889;28;19917;-78
2023/08/14 02:09:36;;;;;;;;;;;;;;;22.26;47.15;99806.66;5074795;28;19924;-77
2023/08/14 02:12:01;;;;;;;;;;;;;;;22.26;44.95;99795.91;5074881;28;19913;-77
2023/08/14 02:14:27;;;;;;;;;;;;;;;22.26;47.94;99798.59;5056955;28;19935;-77
2023/08/14 02:16:52;;;;;;;;;;;;;;;22.28;46.21;99796.47;5074961;28;19935;-77
2023/08/14 02:19:17;;;;;;;;;;;;;;;22.31;46.99;99798.69;5074906;28;19913;-77
2023/08/14 02:21:43;;;;;;;;;;;;;;;22.38;46.07;99796.63;5074778;28;19934;-77
2023/08/14 02:24:08;;;;;;;;;;;;;;;22.37;46.94;99797.69;5074774;28;20375;-77
2023/08/14 02:26:33;;;;;;;;;;;;;;;22.32;46.10;99803.81;5074989;28;19916;-77
2023/08/14 02:28:59;;;;;;;;;;;;;;;22.25;48.00;99799.66;5074961;28;19913;-79
2023/08/14 02:31:24;;;;;;;;;;;;;;;22.26;47.59;99806.66;5075000;28;19965;-79
2023/08/14 02:33:49;;;;;;;;;;;;;;;22.26;47.85;99802.09;5075188;28;19919;-79
2023/08/14 02:36:14;;;;;;;;;;;;;;;22.27;46.71;99801.03;5075001;28;19956;-77
2023/08/14 02:38:40;;;;;;;;;;;;;;;22.31;47.73;99794.13;5075981;28;19908;-79
2023/08/14 02:41:06;;;;;;;;;;;;;;;22.33;48.46;99802.75;5074983;28;20308;-78
2023/08/14 02:43:31;;;;;;;;;;;;;;;22.29;47.68;99798.09;5074210;28;19912;-79
2023/08/14 02:45:57;;;;;;;;;;;;;;;22.28;46.18;99801.84;5056511;28;19917;-78
2023/08/14 02:48:23;;;;;;;;;;;;;;;22.21;48.03;99807.41;5056597;28;19919;-78
2023/08/14 02:50:48;;;;;;;;;;;;;;;22.17;47.70;99804.41;5074473;28;19970;-79
2023/08/14 02:53:13;;;;;;;;;;;;;;;22.17;46.71;99803.59;5056607;28;19912;-78
2023/08/14 02:55:39;;;;;;;;;;;;;;;22.20;47.93;99811.16;5056313;28;19919;-79
2023/08/14 02:58:04;;;;;;;;;;;;;;;22.18;47.91;99805.22;5056406;28;20325;-79
2023/08/14 03:00:29;;;;;;;;;;;;;;;22.15;47.21;99805.72;5053854;28;19971;-79
2023/08/14 03:02:54;;;;;;;;;;;;;;;22.14;47.48;99802.22;5055472;28;20401;-79
2023/08/14 03:05:20;;;;;;;;;;;;;;;22.17;48.13;99812.47;5052720;28;19924;-79
2023/08/14 03:07:45;;;;;;;;;;;;;;;22.17;48.28;99812.47;5054171;28;20290;-78
2023/08/14 03:10:10;;;;;;;;;;;;;;;22.16;47.60;99812.72;5054186;28;19913;-78
2023/08/14 03:12:36;;;;;;;;;;;;;;;22.20;48.06;99811.16;5052465;28;19999;-78
2023/08/14 03:15:01;;;;;;;;;;;;;;;22.17;49.48;99814.34;5053808;28;19921;-78
2023/08/14 03:17:26;;;;;;;;;;;;;;;22.15;46.32;99824.53;5052560;28;20369;-78
2023/08/14 03:19:52;;;;;;;;;;;;;;;22.10;48.77;99821.78;5053615;28;19970;-78
2023/08/14 03:22:17;;;;;;;;;;;;;;;22.05;49.44;99821.69;5052581;28;19913;-78
2023/08/14 03:24:43;;;;;;;;;;;;;;;22.05;48.74;99814.44;5052225;28;20374;-78
2023/08/14 03:27:08;;;;;;;;;;;;;;;22.10;48.08;99814.53;5053317;28;20008;-78
2023/08/14 03:29:33;;;;;;;;;;;;;;;22.17;50.24;99812.47;5052026;28;19916;-78
2023/08/14 03:31:58;;;;;;;;;;;;;;;22.22;47.69;99819.78;5068636;28;20393;-78
2023/08/14 03:34:24;;;;;;;;;;;;;;;22.28;48.01;99826.06;5051803;28;19916;-78
2023/08/14 03:36:49;;;;;;;;;;;;;;;22.29;48.41;99825.00;5053389;28;19916;-78
2023/08/14 03:39:14;;;;;;;;;;;;;;;22.29;48.74;99825.00;5051760;28;19967;-78
2023/08/14 03:41:39;;;;;;;;;;;;;;;22.25;48.65;99822.00;5051809;28;19920;-78
2023/08/14 03:44:05;;;;;;;;;;;;;;;22.27;47.83;99817.19;5052912;28;20317;-78
2023/08/14 03:46:30;;;;;;;;;;;;;;;22.28;49.08;99824.19;5052780;28;19971;-78
2023/08/14 03:48:55;;;;;;;;;;;;;;;22.29;48.88;99830.38;5051529;28;19913;-78
2023/08/14 03:51:20;;;;;;;;;;;;;;;22.37;48.83;99822.72;5052510;28;20316;-78
2023/08/14 03:53:46;;;;;;;;;;;;;;;22.46;47.76;99828.50;5052600;28;19923;-78
2023/08/14 03:56:11;;;;;;;;;;;;;;;22.53;48.27;99831.81;5052642;28;20477;-78
2023/08/14 03:58:36;;;;;;;;;;;;;;;22.55;48.70;99835.06;5052738;28;19917;-78
2023/08/14 04:01:01;;;;;;;;;;;;;;;22.60;48.42;99835.13;5068250;28;19920;-78
2023/08/14 04:03:27;;;;;;;;;;;;;;;22.67;48.50;99834.94;5072897;28;19919;-78
2023/08/14 04:05:54;;;;;;;;;;;;;;;22.73;47.24;99837.47;5073032;28;20339;-79
2023/08/14 04:08:20;;;;;;;;;;;;;;;22.81;47.76;99834.34;5073083;28;19913;-78
2023/08/14 04:10:46;;;;;;;;;;;;;;;22.88;47.26;99830.66;5072804;28;20308;-79
2023/08/14 04:13:12;;;;;;;;;;;;;;;22.90;47.50;99839.28;5054717;28;19923;-78
2023/08/14 04:15:37;;;;;;;;;;;;;;;22.91;46.70;99835.53;5054615;28;20394;-78
2023/08/14 04:18:02;;;;;;;;;;;;;;;22.95;46.40;99842.88;5054438;28;20395;-78
2023/08/14 04:20:28;;;;;;;;;;;;;;;23.01;46.73;99832.97;5054379;28;19908;-78
2023/08/14 04:22:53;;;;;;;;;;;;;;;23.05;46.33;99834.94;5072170;28;19913;-78
2023/08/14 04:25:19;;;;;;;;;;;;;;;23.08;48.27;99839.00;5072164;28;20313;-78
2023/08/14 04:27:45;;;;;;;;;;;;;;;23.04;47.91;99838.69;5072156;28;19916;-78
2023/08/14 04:30:10;;;;;;;;;;;;;;;23.05;47.08;99834.94;5072113;28;19920;-78
2023/08/14 04:32:36;;;;;;;;;;;;;;;23.12;46.67;99837.44;5071994;28;20435;-77
2023/08/14 04:35:01;;;;;;;;;;;;;;;23.22;46.61;99842.09;5072174;28;19981;-78
2023/08/14 04:37:26;;;;;;;;;;;;;;;23.30;46.38;99844.34;5071996;28;19995;-78
2023/08/14 04:39:52;;;;;;;;;;;;;;;23.31;46.91;99843.28;5071943;28;19916;-78
2023/08/14 04:42:17;;;;;;;;;;;;;;;23.32;46.33;99853.81;5071936;28;19935;-78
2023/08/14 04:44:42;;;;;;;;;;;;;;;23.43;46.34;99852.03;5071855;28;19912;-78
2023/08/14 04:47:07;;;;;;;;;;;;;;;23.51;46.28;99856.94;5072053;28;20336;-78
2023/08/14 04:49:32;;;;;;;;;;;;;;;23.55;46.50;99855.41;5071879;28;19959;-78
2023/08/14 04:51:58;;;;;;;;;;;;;;;23.61;45.57;99861.66;5071938;28;19912;-78
2023/08/14 04:54:23;;;;;;;;;;;;;;;23.64;45.26;99861.97;5053810;28;19962;-78
2023/08/14 04:56:48;;;;;;;;;;;;;;;23.68;45.27;99864.94;5072266;28;19912;-78
2023/08/14 04:59:14;;;;;;;;;;;;;;;23.72;46.08;99864.19;5071819;28;20320;-78
2023/08/14 05:01:39;;;;;;;;;;;;;;;23.76;45.47;99870.69;5071666;28;19916;-79
2023/08/14 05:04:04;;;;;;;;;;;;;;;23.77;45.72;99864.22;5071670;28;19913;-78
2023/08/14 05:06:29;;;;;;;;;;;;;;;23.86;44.90;99869.19;5072319;28;19965;-78
2023/08/14 05:08:55;;;;;;;;;;;;;;;23.93;44.99;99867.09;5072197;28;19998;-78
2023/08/14 05:11:20;;;;;;;;;;;;;;;23.99;44.67;99871.44;5054046;28;19920;-78
2023/08/14 05:13:46;;;;;;;;;;;;;;;24.06;44.47;99875.56;5071907;28;19909;-78
2023/08/14 05:16:11;;;;;;;;;;;;;;;24.12;44.79;99867.50;5071847;28;20354;-78
2023/08/14 05:18:36;;;;;;;;;;;;;;;24.19;44.49;99868.09;5071715;28;19912;-77
2023/08/14 05:21:01;;;;;;;;;;;;;;;24.20;44.52;99872.41;5071970;28;20111;-78
2023/08/14 05:23:27;;;;;;;;;;;;;;;24.21;43.50;99869.44;5072056;28;19914;-78
2023/08/14 05:25:52;;;;;;;;;;;;;;;24.22;44.54;99876.47;5071872;28;19921;-78
2023/08/14 05:28:17;;;;;;;;;;;;;;;24.25;44.82;99873.25;5072143;28;20023;-77
2023/08/14 05:30:44;;;;;;;;;;;;;;;24.28;43.41;99870.06;5072179;28;19921;-77
2023/08/14 05:33:09;;;;;;;;;;;;;;;24.28;44.14;99880.84;5072110;28;20312;-78
2023/08/14 05:35:35;;;;;;;;;;;;;;;24.31;43.80;99879.53;5073198;28;19919;-78
2023/08/14 05:38:00;;;;;;;;;;;;;;;24.36;43.94;99872.28;5072610;28;19947;-78
2023/08/14 05:40:26;;;;;;;;;;;;;;;24.40;43.46;99876.06;5034100;28;19928;-78
2023/08/14 05:43:06;;;;;;;;;;;;;;;24.43;43.61;99872.03;5051857;28;20023;-77
2023/08/14 05:45:35;;;;;;;;;;;;;;;24.47;43.57;99873.16;5051649;28;19921;-77
2023/08/14 05:48:01;;;;;;;;;;;;;;;24.55;43.40;99882.66;5051405;28;19917;-77
2023/08/14 05:50:27;;;;;;;;;;;;;;;24.60;43.50;99872.72;5064266;28;19969;-76
2023/08/14 05:52:54;;;;;;;;;;;;;;;24.66;43.33;99881.66;5068494;28;20007;-75
2023/08/14 05:55:20;;;;;;;;;;;;;;;24.67;42.42;99878.69;5066431;28;20006;-77
2023/08/14 05:57:45;;;;;;;;;;;;;;;24.70;43.22;99882.75;5034357;28;19960;-78
2023/08/14 06:00:10;;;;;;;;;;;;;;;24.77;43.47;99877.94;5061185;28;19929;-79
2023/08/14 06:02:36;;;;;;;;;;;;;;;24.83;43.00;99879.56;5063581;28;19923;-78
2023/08/14 06:05:01;;;;;;;;;;;;;;;24.87;42.28;99879.84;5058511;28;20377;-78
2023/08/14 06:07:26;;;;;;;;;;;;;;;24.85;42.59;99882.81;5064010;28;20381;-78
2023/08/14 06:09:51;;;;;;;;;;;;;;;24.82;42.44;99886.06;5060255;28;19923;-78
2023/08/14 06:12:17;;;;;;;;;;;;;;;24.84;42.51;99880.38;5068189;28;19974;-78
2023/08/14 06:14:42;;;;;;;;;;;;;;;24.86;41.87;99883.63;5059380;28;19920;-79
2023/08/14 06:17:07;;;;;;;;;;;;;;;24.91;42.23;99884.47;5070068;28;20386;-79
2023/08/14 06:19:33;;;;;;;;;;;;;;;24.97;41.94;99888.84;5059108;28;19917;-78
2023/08/14 06:21:58;;;;;;;;;;;;;;;25.00;41.41;99887.50;5064398;28;19917;-77
2023/08/14 06:24:25;;;;;;;;;;;;;;;25.03;41.41;99884.28;5039273;28;19938;-78
2023/08/14 06:26:50;;;;;;;;;;;;;;;25.02;41.49;99882.66;5040264;28;19921;-77
2023/08/14 06:29:15;;;;;;;;;;;;;;;25.02;41.41;99885.34;5054286;28;19944;-78
2023/08/14 06:31:41;;;;;;;;;;;;;;;25.01;41.61;99879.13;5064385;28;19912;-78
2023/08/14 06:34:06;;;;;;;;;;;;;;;25.09;41.46;99875.09;5070147;28;19916;-78
2023/08/14 06:36:31;;;;;;;;;;;;;;;25.21;41.50;99872.16;5073965;28;19912;-76
2023/08/14 06:38:56;;;;;;;;;;;;;;;25.23;41.11;99872.72;5072832;28;19919;-76
2023/08/14 06:41:22;;;;;;;;;;;;;;;25.21;41.12;99872.97;5055267;28;20419;-77
2023/08/14 06:43:47;;;;;;;;;;;;;;;25.28;40.96;99876.28;5072158;28;19912;-78
2023/08/14 06:46:12;;;;;;;;;;;;;;;25.32;40.88;99869.25;5061044;28;19936;-79
2023/08/14 06:48:37;;;;;;;;;;;;;;;25.38;40.55;99883.59;5067551;28;19989;-77
2023/08/14 06:51:03;;;;;;;;;;;;;;;25.40;40.51;99872.53;5055827;28;19917;-76
2023/08/14 06:53:28;;;;;;;;;;;;;;;25.39;40.83;99877.13;5055969;28;19912;-78
2023/08/14 06:55:53;;;;;;;;;;;;;;;25.39;40.21;99876.31;5063033;28;19940;-78
2023/08/14 06:58:18;;;;;;;;;;;;;;;25.45;40.24;99870.63;5053818;28;19913;-78
2023/08/14 07:00:46;;;;;;;;;;;;;;;25.47;40.37;99868.47;5035810;28;19920;-78
2023/08/14 07:03:11;;;;;;;;;;;;;;;25.52;40.26;99873.88;5054069;28;19967;-77
2023/08/14 07:05:36;;;;;;;;;;;;;;;25.60;40.45;99873.34;5067570;28;19920;-77
2023/08/14 07:08:02;;;;;;;;;;;;;;;25.68;39.94;99871.22;5073086;28;19912;-76
2023/08/14 07:10:27;;;;;;;;;;;;;;;25.68;39.95;99861.22;5073854;28;19912;-79
2023/08/14 07:12:52;;;;;;;;;;;;;;;25.79;39.71;99859.34;5073203;28;19958;-77
2023/08/14 07:15:17;;;;;;;;;;;;;;;25.82;39.33;99864.22;5073607;28;19919;-77
2023/08/14 07:17:43;;;;;;;;;;;;;;;25.82;39.34;99867.72;5060076;28;20379;-78
2023/08/14 07:20:08;;;;;;;;;;;;;;;25.89;39.11;99867.44;5065187;28;20385;-76
2023/08/14 07:22:33;;;;;;;;;;;;;;;25.95;39.04;99864.47;5073507;28;19919;-78
2023/08/14 07:24:59;;;;;;;;;;;;;;;26.05;39.00;99849.34;5073458;28;20417;-78
2023/08/14 07:27:24;;;;;;;;;;;;;;;26.15;38.71;99844.72;5073176;28;19924;-78
2023/08/14 07:29:49;;;;;;;;;;;;;;;26.23;38.47;99851.47;5073674;28;19995;-78
2023/08/14 07:32:14;;;;;;;;;;;;;;;26.28;38.70;99844.16;5073215;28;19912;-79
2023/08/14 07:34:40;;;;;;;;;;;;;;;26.40;38.33;99849.31;5073384;28;20007;-79
2023/08/14 07:37:05;;;;;;;;;;;;;;;26.50;38.03;99852.00;5055076;28;19962;-78
2023/08/14 07:39:30;;;;;;;;;;;;;;;26.56;38.11;99850.88;5070331;28;20324;-77
2023/08/14 07:41:56;;;;;;;;;;;;;;;26.58;37.35;99847.91;5073343;28;19916;-78
2023/08/14 07:44:21;;;;;;;;;;;;;;;26.53;37.68;99837.91;5071473;28;20385;-78
2023/08/14 07:46:46;;;;;;;;;;;;;;;26.62;37.73;99840.84;5054749;28;19973;-78
2023/08/14 07:49:11;;;;;;;;;;;;;;;26.69;37.71;99838.66;5072029;28;19920;-78
2023/08/14 07:51:36;;;;;;;;;;;;;;;26.67;37.88;99834.59;5070920;28;20003;-78
2023/08/14 07:54:02;;;;;;;;;;;;;;;26.73;37.38;99825.38;5070506;28;20003;-79
2023/08/14 07:56:27;;;;;;;;;;;;;;;26.78;37.61;99839.72;5059457;28;20309;-79
2023/08/14 07:58:53;;;;;;;;;;;;;;;26.85;36.97;99837.53;5052460;28;19952;-78
2023/08/14 08:01:18;;;;;;;;;;;;;;;26.91;37.25;99838.31;5034622;28;19990;-78
2023/08/14 08:03:43;;;;;;;;;;;;;;;27.00;37.46;99835.88;5062941;28;19916;-78
2023/08/14 08:06:09;;;;;;;;;;;;;;;27.08;37.16;99833.38;5052777;28;19920;-78
2023/08/14 08:08:34;;;;;;;;;;;;;;;27.13;37.12;99832.53;5061063;28;19920;-76
2023/08/14 08:10:59;;;;;;;;;;;;;;;27.26;36.68;99834.63;5051838;28;19916;-78
2023/08/14 08:13:24;;;;;;;;;;;;;;;27.31;36.45;99831.88;5071632;28;20001;-77
2023/08/14 08:15:50;;;;;;;;;;;;;;;27.37;36.25;99829.94;5054324;28;19913;-78
2023/08/14 08:18:15;;;;;;;;;;;;;;;27.38;36.08;99837.00;5045238;28;19909;-77
2023/08/14 08:20:40;;;;;;;;;;;;;;;27.40;36.43;99832.91;5034196;28;19996;-77
2023/08/14 08:23:05;;;;;;;;;;;;;;;27.50;36.17;99835.56;5052408;28;19913;-78
2023/08/14 08:25:31;;;;;;;;;;;;;;;27.56;36.08;99833.63;5034207;28;20279;-78
2023/08/14 08:27:56;;;;;;;;;;;;;;;27.61;36.07;99839.06;5049153;28;19960;-78
2023/08/14 08:30:21;;;;;;;;;;;;;;;27.65;36.12;99839.28;5071408;28;19970;-78
2023/08/14 08:32:47;;;;;;;;;;;;;;;27.70;35.92;99826.50;5071846;28;20377;-79
2023/08/14 08:35:12;;;;;;;;;;;;;;;27.82;36.10;99829.66;5071894;28;19916;-78
2023/08/14 08:37:38;;;;;;;;;;;;;;;27.93;36.08;99824.13;5065917;28;19916;-79
2023/08/14 08:40:05;;;;;;;;;;;;;;;28.02;35.26;99825.13;5062973;28;19937;-78
2023/08/14 08:42:30;;;;;;;;;;;;;;;28.12;35.72;99822.31;5033833;28;19952;-76
2023/08/14 08:45:00;;;;;;;;;;;;;;;28.13;35.57;99826.66;5034051;28;19959;-78
2023/08/14 08:47:28;;;;;;;;;;;;;;;28.17;35.47;99823.06;5051642;28;20392;-78
2023/08/14 08:49:54;;;;;;;;;;;;;;;28.18;35.77;99818.44;5060972;28;20003;-78
2023/08/14 08:52:19;;;;;;;;;;;;;;;28.24;34.99;99817.34;5070914;28;19917;-78
2023/08/14 08:54:45;;;;;;;;;;;;;;;28.40;35.34;99815.28;5070503;28;20436;-77
2023/08/14 08:57:11;;;;;;;;;;;;;;;28.56;35.49;99814.00;5053494;28;19904;-79
2023/08/14 08:59:39;;;;;;;;;;;;;;;28.74;35.26;99821.38;5043900;28;19927;-76
2023/08/14 09:02:04;;;;;;;;;;;;;;;29.04;35.31;99819.41;5053632;28;19916;-78
2023/08/14 09:04:29;;;;;;;;;;;;;;;29.19;34.58;99804.78;5053720;28;19904;-77
2023/08/14 09:06:55;;;;;;;;;;;;;;;29.23;35.07;99811.25;5071456;28;19963;-78
2023/08/14 09:09:20;;;;;;;;;;;;;;;29.24;34.98;99813.69;5070784;28;20388;-78
2023/08/14 09:11:46;;;;;;;;;;;;;;;29.23;35.20;99816.69;5053237;28;19917;-79
2023/08/14 09:14:11;;;;;;;;;;;;;;;29.14;35.29;99824.72;5069084;28;19920;-76
2023/08/14 09:16:37;;;;;;;;;;;;;;;29.10;35.07;99820.97;5049699;28;19916;-78
2023/08/14 09:19:02;;;;;;;;;;;;;;;29.08;35.61;99820.44;5033873;28;19928;-79
2023/08/14 09:21:28;;;;;;;;;;;;;;;29.09;35.53;99812.00;5033306;28;19913;-78
2023/08/14 09:23:53;;;;;;;;;;;;;;;29.10;35.63;99810.09;5057689;28;20371;-77
2023/08/14 09:26:19;;;;;;;;;;;;;;;29.08;35.35;99804.94;5071125;28;20016;-78
2023/08/14 09:28:45;;;;;;;;;;;;;;;29.04;36.07;99814.78;5069861;28;20007;-77
2023/08/14 09:31:11;;;;;;;;;;;;;;;28.97;36.19;99808.88;5071338;28;20380;-77
2023/08/14 09:33:37;;;;;;;;;;;;;;;28.86;37.77;99818.28;5053166;28;19912;-78
2023/08/14 09:36:02;;;;;;;;;;;;;;;28.84;37.24;99811.50;5053586;28;19923;-77
2023/08/14 09:38:27;;;;;;;;;;;;;;;28.87;37.85;99813.66;5047067;28;19935;-78
2023/08/14 09:40:59;;;;;;;;;;;;;;;28.89;37.37;99804.09;5051978;28;19999;-78
2023/08/14 09:43:25;;;;;;;;;;;;;;;28.89;37.51;99797.84;5052462;28;19917;-78
2023/08/14 09:45:55;;;;;;;;;;;;;;;28.87;37.40;99797.34;5033197;28;19924;-78
2023/08/14 09:48:21;;;;;;;;;;;;;;;28.85;38.09;99794.91;5050825;28;20412;-78
2023/08/14 09:50:50;;;;;;;;;;;;;;;28.84;37.37;99806.88;5052637;28;20390;-78
2023/08/14 09:53:15;;;;;;;;;;;;;;;28.83;37.24;99802.53;5053486;28;19913;-78
2023/08/14 09:55:41;;;;;;;;;;;;;;;28.83;38.13;99802.53;5055922;28;19916;-78
2023/08/14 09:58:06;;;;;;;;;;;;;;;28.83;38.21;99799.81;5054612;28;19917;-78
2023/08/14 10:00:32;;;;;;;;;;;;;;;28.80;37.97;99800.38;5054485;28;20417;-78
2023/08/14 10:02:59;;;;;;;;;;;;;;;28.77;39.34;99801.78;5056538;28;19913;-78
2023/08/14 10:05:25;;;;;;;;;;;;;;;28.74;39.03;99796.13;5067533;28;19917;-78
2023/08/14 10:07:52;;;;;;;;;;;;;;;28.72;38.61;99793.69;5074406;28;19955;-78
2023/08/14 10:10:18;;;;;;;;;;;;;;;28.72;38.39;99801.03;5074398;28;19991;-78
2023/08/14 10:12:49;;;;;;;;;;;;;;;28.67;38.71;99796.47;5056416;28;20365;-77
2023/08/14 10:15:16;;;;;;;;;;;;;;;28.64;40.17;99799.78;5053271;28;20007;-78
2023/08/14 10:17:44;;;;;;;;;;;;;;;28.66;39.63;99803.00;5058941;28;19921;-78
2023/08/14 10:20:11;;;;;;;;;;;;;;;28.68;39.09;99798.09;5052932;28;19920;-79
2023/08/14 10:22:36;;;;;;;;;;;;;;;28.71;39.26;99791.28;5044886;28;19916;-77
2023/08/14 10:25:03;;;;;;;;;;;;;;;28.70;38.53;99785.03;5039484;28;19921;-78
2023/08/14 10:27:29;;;;;;;;;;;;;;;28.72;38.95;99784.72;5064062;28;19928;-77
2023/08/14 10:29:54;;;;;;;;;;;;;;;28.81;39.46;99772.09;5069258;28;19963;-76
2023/08/14 10:32:20;;;;;;;;;;;;;;;28.86;39.31;99766.63;5047620;28;20401;-76
2023/08/14 10:34:49;;;;;;;;;;;;;;;28.92;38.91;99753.78;5047276;28;19916;-76
2023/08/14 10:37:37;;;;;;;;;;;;;;;28.97;38.60;99759.13;5071064;28;19916;-79
2023/08/14 10:40:15;;;;;;;;;;;;;;;29.26;38.34;99757.09;5044979;28;20003;-78
2023/08/14 10:43:00;;;;;;;;;;;;;;;29.42;38.83;99757.66;5055070;28;19917;-78
2023/08/14 10:45:26;;;;;;;;;;;;;;;29.71;37.70;99749.28;5054829;28;19974;-78
2023/08/14 10:47:52;;;;;;;;;;;;;;;30.40;37.26;99741.22;5035826;28;19912;-78
2023/08/14 10:50:17;;;;;;;;;;;;;;;31.02;36.16;99757.88;5053564;28;19914;-76
2023/08/14 10:52:50;;;;;;;;;;;;;;;31.38;35.33;99747.78;5051790;28;19959;-78
2023/08/14 10:55:17;;;;;;;;;;;;;;;31.70;35.04;99737.72;5057295;28;19916;-77
2023/08/14 10:57:44;;;;;;;;;;;;;;;31.68;34.79;99740.75;5055850;28;19928;-76
2023/08/14 11:00:22;;;;;;;;;;;;;;;31.86;34.10;99738.94;5071387;28;19931;-78
2023/08/14 11:02:53;;;;;;;;;;;;;;;32.19;33.90;99734.75;5042379;28;19923;-77
2023/08/14 11:05:18;;;;;;;;;;;;;;;32.69;33.45;99728.94;5065705;28;19927;-78
2023/08/14 11:07:57;;;;;;;;;;;;;;;32.64;33.34;99718.16;5053958;28;20007;-79
2023/08/14 11:10:26;;;;;;;;;;;;;;;32.27;32.99;99729.66;5073296;28;19917;-79
2023/08/14 11:12:52;;;;;;;;;;;;;;;31.92;33.43;99724.03;5072538;28;19916;-78
2023/08/14 11:15:21;;;;;;;;;;;;;;;31.65;33.73;99721.47;5071863;28;20012;-79
2023/08/14 11:17:47;;;;;;;;;;;;;;;31.74;33.54;99728.59;5055305;28;19912;-78
2023/08/14 11:20:13;;;;;;;;;;;;;;;31.66;33.32;99717.59;5055281;28;19919;-77
2023/08/14 11:22:42;;;;;;;;;;;;;;;31.57;33.29;99706.66;5070002;28;19967;-78
2023/08/14 11:25:07;;;;;;;;;;;;;;;31.60;33.50;99706.81;5071842;28;19917;-76
2023/08/14 11:27:33;;;;;;;;;;;;;;;31.53;33.51;99705.66;5055004;28;19924;-78
2023/08/14 11:29:58;;;;;;;;;;;;;;;31.77;33.40;99706.13;5054926;28;19924;-78
2023/08/14 11:32:23;;;;;;;;;;;;;;;32.06;32.83;99707.56;5061480;28;20396;-77
2023/08/14 11:34:49;;;;;;;;;;;;;;;32.15;32.99;99689.25;5041145;28;19916;-77
2023/08/14 11:37:14;;;;;;;;;;;;;;;32.05;32.47;99698.56;5073021;28;19919;-77
2023/08/14 11:39:42;;;;;;;;;;;;;;;32.15;32.45;99681.88;5072886;28;19913;-77
2023/08/14 11:42:08;;;;;;;;;;;;;;;32.52;32.52;99688.72;5054781;28;20003;-79
2023/08/14 11:44:33;;;;;;;;;;;;;;;32.88;31.09;99682.19;5054144;28;19960;-78
2023/08/14 11:47:02;;;;;;;;;;;;;;;33.08;31.08;99675.25;5072641;28;19927;-79
2023/08/14 11:49:28;;;;;;;;;;;;;;;33.03;31.51;99678.94;5072486;28;19912;-78
2023/08/14 11:51:54;;;;;;;;;;;;;;;32.89;29.65;99683.78;5072478;28;20007;-78
2023/08/14 11:54:19;;;;;;;;;;;;;;;33.00;30.47;99676.88;5053142;28;19923;-77
2023/08/14 11:56:46;;;;;;;;;;;;;;;33.03;29.43;99670.75;5054377;28;19916;-78
2023/08/14 11:59:11;;;;;;;;;;;;;;;33.13;30.14;99664.13;5070374;28;19931;-78
2023/08/14 12:01:37;;;;;;;;;;;;;;;33.12;30.06;99666.06;5072322;28;19912;-78
2023/08/14 12:04:03;;;;;;;;;;;;;;;33.38;29.68;99668.75;5072489;28;19972;-80
2023/08/14 12:06:29;;;;;;;;;;;;;;;33.36;29.34;99662.00;5071494;28;19921;-77
2023/08/14 12:08:54;;;;;;;;;;;;;;;33.54;29.66;99668.25;5072279;28;20408;-77
2023/08/14 12:11:22;;;;;;;;;;;;;;;33.52;28.70;99659.56;5071393;28;21636;-77
2023/08/14 12:13:49;;;;;;;;;;;;;;;33.44;29.27;99656.53;5071685;28;19920;-78
2023/08/14 12:16:14;;;;;;;;;;;;;;;33.53;29.51;99650.22;5052608;28;20364;-78
2023/08/14 12:18:41;;;;;;;;;;;;;;;33.28;29.72;99652.66;5072257;28;19909;-76
2023/08/14 12:21:10;;;;;;;;;;;;;;;33.04;29.68;99649.66;5072223;28;19912;-76
2023/08/14 12:23:35;;;;;;;;;;;;;;;32.88;29.92;99662.22;5071447;28;19966;-78
2023/08/14 12:26:01;;;;;;;;;;;;;;;32.74;30.03;99649.50;5071599;28;19924;-78
2023/08/14 12:28:27;;;;;;;;;;;;;;;32.57;29.98;99641.28;5053714;28;20400;-78
2023/08/14 12:30:52;;;;;;;;;;;;;;;32.45;30.01;99641.13;5071967;28;19916;-78
2023/08/14 12:33:18;;;;;;;;;;;;;;;32.23;30.54;99631.91;5054286;28;19919;-78
2023/08/14 12:35:43;;;;;;;;;;;;;;;32.14;30.70;99631.09;5053817;28;19912;-78
2023/08/14 12:38:09;;;;;;;;;;;;;;;32.08;30.60;99639.75;5071931;28;19912;-78
2023/08/14 12:40:35;;;;;;;;;;;;;;;32.05;30.45;99632.19;5054075;28;19919;-78